createdAt,value
2023-04-10T00:02:12.051Z,4.10
2023-04-10T00:04:38.982Z,4.10
2023-04-10T00:07:05.764Z,4.20
2023-04-10T00:09:32.575Z,4.20
2023-04-10T00:11:59.564Z,4.20
2023-04-10T00:14:26.618Z,4.20
2023-04-10T00:16:53.548Z,4.20
2023-04-10T00:19:20.459Z,4.10
2023-04-10T00:21:47.433Z,4.20
2023-04-10T00:24:14.266Z,4.10
2023-04-10T00:26:41.084Z,4.10
2023-04-10T00:29:08.228Z,4.10
2023-04-10T00:31:35.276Z,4.10
2023-04-10T00:34:02.250Z,4.10
2023-04-10T00:36:28.962Z,4.00
2023-04-10T00:38:55.714Z,4.00
2023-04-10T00:41:23.887Z,4.00
2023-04-10T00:43:50.936Z,4.00
2023-04-10T00:46:18.040Z,3.90
2023-04-10T00:48:44.998Z,3.90
2023-04-10T00:51:12.067Z,3.80
2023-04-10T00:53:38.817Z,3.70
2023-04-10T00:56:06.962Z,3.60
2023-04-10T00:58:33.866Z,3.50
2023-04-10T01:01:00.627Z,3.50
2023-04-10T01:03:27.533Z,3.40
2023-04-10T01:06:13.427Z,3.40
2023-04-10T01:08:57.209Z,3.40
2023-04-10T01:11:47.624Z,3.30
2023-04-10T01:14:36.269Z,3.30
2023-04-10T01:17:10.233Z,3.30
2023-04-10T01:20:02.872Z,3.20
2023-04-10T01:22:37.730Z,3.20
2023-04-10T01:25:22.283Z,3.10
2023-04-10T01:28:12.454Z,3.10
2023-04-10T01:30:40.023Z,3.10
2023-04-10T01:33:12.673Z,3.10
2023-04-10T01:35:43.145Z,3.10
2023-04-10T01:38:12.105Z,3.00
2023-04-10T01:40:40.332Z,3.00
2023-04-10T01:43:10.300Z,4.10
2023-04-10T01:45:41.446Z,2.90
2023-04-10T01:48:08.497Z,2.80
2023-04-10T01:50:36.070Z,2.80
2023-04-10T01:53:06.133Z,2.80
2023-04-10T01:55:34.088Z,2.70
2023-04-10T01:58:01.707Z,2.70
2023-04-10T02:00:28.666Z,2.70
2023-04-10T02:02:55.593Z,2.70
2023-04-10T02:05:27.643Z,2.60
2023-04-10T02:08:09.060Z,2.60
2023-04-10T02:10:48.960Z,2.60
2023-04-10T02:13:21.367Z,2.60
2023-04-10T02:15:51.489Z,2.50
2023-04-10T02:18:19.594Z,2.50
2023-04-10T02:20:46.463Z,2.50
2023-04-10T02:23:16.946Z,2.40
2023-04-10T02:25:43.883Z,2.40
2023-04-10T02:28:10.790Z,2.40
2023-04-10T02:30:39.177Z,2.40
2023-04-10T02:33:06.143Z,2.40
2023-04-10T02:35:34.421Z,2.40
2023-04-10T02:38:01.281Z,2.30
2023-04-10T02:40:32.210Z,2.30
2023-04-10T02:42:59.064Z,2.20
2023-04-10T02:45:26.056Z,2.10
2023-04-10T02:47:52.836Z,2.10
2023-04-10T02:50:19.744Z,2.10
2023-04-10T02:52:46.616Z,2.10
2023-04-10T02:55:13.482Z,2.10
2023-04-10T02:57:42.640Z,2.10
2023-04-10T03:00:10.249Z,2.10
2023-04-10T03:02:37.290Z,2.10
2023-04-10T03:05:04.479Z,2.10
2023-04-10T03:07:32.249Z,2.10
2023-04-10T03:09:59.046Z,2.10
2023-04-10T03:12:26.205Z,2.10
2023-04-10T03:14:53.030Z,2.10
2023-04-10T03:17:19.779Z,2.10
2023-04-10T03:19:46.605Z,2.10
2023-04-10T03:22:13.409Z,2.10
2023-04-10T03:24:41.035Z,2.00
2023-04-10T03:27:07.766Z,1.90
2023-04-10T03:29:34.553Z,1.80
2023-04-10T03:32:01.452Z,1.80
2023-04-10T03:34:28.395Z,1.80
2023-04-10T03:36:55.182Z,1.80
2023-04-10T03:39:22.043Z,1.60
2023-04-10T03:41:49.075Z,1.60
2023-04-10T03:44:16.121Z,1.60
2023-04-10T03:46:42.936Z,1.60
2023-04-10T03:49:09.804Z,1.60
2023-04-10T03:51:36.560Z,1.60
2023-04-10T03:54:03.672Z,1.50
2023-04-10T03:56:30.437Z,1.50
2023-04-10T03:58:57.224Z,1.40
2023-04-10T04:01:24.116Z,1.30
2023-04-10T04:03:51.178Z,1.10
2023-04-10T04:06:18.298Z,1.30
2023-04-10T04:08:45.080Z,1.20
2023-04-10T04:11:11.811Z,1.20
2023-04-10T04:13:38.474Z,1.20
2023-04-10T04:16:05.624Z,1.20
2023-04-10T04:18:32.326Z,1.20
2023-04-10T04:20:59.047Z,1.20
2023-04-10T04:23:26.066Z,1.20
2023-04-10T04:25:54.300Z,1.20
2023-04-10T04:28:21.075Z,1.20
2023-04-10T04:30:47.949Z,1.20
2023-04-10T04:33:14.714Z,1.20
2023-04-10T04:35:41.575Z,1.10
2023-04-10T04:38:08.449Z,1.10
2023-04-10T04:40:35.659Z,1.20
2023-04-10T04:43:02.476Z,1.20
2023-04-10T04:45:31.012Z,1.20
2023-04-10T04:47:58.036Z,1.20
2023-04-10T04:50:24.977Z,1.20
2023-04-10T04:52:51.870Z,1.40
2023-04-10T04:55:19.119Z,1.20
2023-04-10T04:57:45.921Z,1.20
2023-04-10T05:00:12.945Z,1.20
2023-04-10T05:02:39.937Z,1.20
2023-04-10T05:05:07.307Z,1.20
2023-04-10T05:07:34.062Z,1.20
2023-04-10T05:10:00.856Z,1.10
2023-04-10T05:12:27.643Z,0.90
2023-04-10T05:14:54.370Z,0.90
2023-04-10T05:17:21.393Z,0.90
2023-04-10T05:19:48.272Z,1.00
2023-04-10T05:22:16.872Z,1.00
2023-04-10T05:24:44.841Z,1.00
2023-04-10T05:27:11.641Z,1.00
2023-04-10T05:29:38.815Z,1.00
2023-04-10T05:32:05.792Z,1.00
2023-04-10T05:34:32.573Z,1.10
2023-04-10T05:36:59.515Z,1.20
2023-04-10T05:39:26.392Z,1.30
2023-04-10T05:41:53.163Z,1.30
2023-04-10T05:44:19.890Z,1.40
2023-04-10T05:46:46.825Z,1.40
2023-04-10T05:49:13.790Z,1.50
2023-04-10T05:51:43.496Z,1.60
2023-04-10T05:54:10.327Z,1.70
2023-04-10T05:56:37.179Z,1.80
2023-04-10T05:59:04.026Z,1.90
2023-04-10T06:01:30.953Z,2.00
2023-04-10T06:03:58.135Z,2.20
2023-04-10T06:06:26.307Z,2.20
2023-04-10T06:08:53.582Z,2.30
2023-04-10T06:11:21.062Z,2.40
2023-04-10T06:13:47.910Z,2.50
2023-04-10T06:16:17.553Z,2.50
2023-04-10T06:18:44.384Z,2.50
2023-04-10T06:21:11.302Z,2.60
2023-04-10T06:23:38.318Z,2.60
2023-04-10T06:26:05.312Z,2.70
2023-04-10T06:28:32.200Z,2.80
2023-04-10T06:31:02.390Z,2.90
2023-04-10T06:33:29.282Z,2.90
2023-04-10T06:35:57.314Z,3.00
2023-04-10T06:38:24.026Z,3.10
2023-04-10T06:40:50.770Z,3.20
2023-04-10T06:43:18.675Z,3.30
2023-04-10T06:45:46.004Z,3.50
2023-04-10T06:48:13.078Z,3.80
2023-04-10T06:50:39.931Z,4.20
2023-04-10T06:53:06.710Z,4.70
2023-04-10T06:55:33.452Z,5.30
2023-04-10T06:58:00.392Z,5.90
2023-04-10T07:00:27.275Z,6.60
2023-04-10T07:02:54.408Z,7.20
2023-04-10T07:05:22.523Z,7.90
2023-04-10T07:07:50.687Z,8.40
2023-04-10T07:10:17.579Z,8.80
2023-04-10T07:12:44.277Z,9.20
2023-04-10T07:15:12.639Z,9.60
2023-04-10T07:17:39.500Z,10.10
2023-04-10T07:20:07.043Z,10.50
2023-04-10T07:22:33.973Z,10.80
2023-04-10T07:25:00.732Z,11.20
2023-04-10T07:27:27.976Z,11.50
2023-04-10T07:29:56.846Z,11.80
2023-04-10T07:32:24.091Z,11.80
2023-04-10T07:34:51.094Z,12.00
2023-04-10T07:37:18.236Z,12.20
2023-04-10T07:39:45.460Z,12.40
2023-04-10T07:42:12.351Z,12.50
2023-04-10T07:44:39.240Z,12.70
2023-04-10T07:47:06.003Z,12.90
2023-04-10T07:49:32.789Z,13.00
2023-04-10T07:51:59.718Z,13.20
2023-04-10T07:54:26.892Z,13.40
2023-04-10T07:56:53.793Z,13.60
2023-04-10T07:59:21.783Z,13.50
2023-04-10T08:01:48.733Z,13.80
2023-04-10T08:04:17.130Z,13.90
2023-04-10T08:06:44.228Z,14.20
2023-04-10T08:09:12.151Z,14.30
2023-04-10T08:11:39.961Z,15.00
2023-04-10T08:14:07.233Z,14.60
2023-04-10T08:16:36.195Z,15.30
2023-04-10T08:19:05.232Z,14.90
2023-04-10T08:21:32.428Z,15.00
2023-04-10T08:24:03.838Z,15.10
2023-04-10T08:26:31.778Z,15.20
2023-04-10T08:29:00.766Z,15.30
2023-04-10T08:31:29.388Z,15.40
2023-04-10T08:33:58.069Z,15.50
2023-04-10T08:36:27.163Z,15.60
2023-04-10T08:38:54.097Z,15.70
2023-04-10T08:41:20.937Z,15.80
2023-04-10T08:43:49.649Z,15.90
2023-04-10T08:46:16.841Z,16.20
2023-04-10T08:49:18.797Z,16.10
2023-04-10T08:52:03.189Z,16.10
2023-04-10T08:54:36.047Z,16.10
2023-04-10T08:57:04.110Z,15.90
2023-04-10T08:59:31.629Z,15.80
2023-04-10T09:01:59.706Z,15.60
2023-04-10T09:04:27.649Z,15.80
2023-04-10T09:06:54.908Z,15.20
2023-04-10T09:09:21.968Z,15.00
2023-04-10T09:11:55.429Z,14.90
2023-04-10T09:14:28.524Z,14.90
2023-04-10T09:17:15.432Z,15.40
2023-04-10T09:19:44.032Z,14.70
2023-04-10T09:22:11.238Z,15.00
2023-04-10T09:24:45.478Z,14.60
2023-04-10T09:27:31.780Z,14.60
2023-04-10T09:29:59.060Z,14.60
2023-04-10T09:32:43.119Z,14.50
2023-04-10T09:35:11.823Z,14.60
2023-04-10T09:37:40.429Z,14.40
2023-04-10T09:40:24.686Z,14.40
2023-04-10T09:42:56.010Z,15.70
2023-04-10T09:45:23.134Z,14.50
2023-04-10T09:48:03.503Z,15.10
2023-04-10T09:50:40.390Z,14.50
2023-04-10T09:53:12.342Z,14.50
2023-04-10T09:55:39.359Z,14.40
2023-04-10T09:58:07.133Z,16.60
2023-04-10T10:00:42.000Z,14.50
2023-04-10T10:03:14.049Z,14.70
2023-04-10T10:05:47.523Z,14.80
2023-04-10T10:08:15.996Z,14.70
2023-04-10T10:10:53.377Z,14.70
2023-04-10T10:13:28.212Z,14.70
2023-04-10T10:16:08.822Z,14.70
2023-04-10T10:18:46.072Z,14.70
2023-04-10T10:21:14.552Z,14.60
2023-04-10T10:23:44.036Z,14.50
2023-04-10T10:26:11.463Z,14.50
2023-04-10T10:28:40.228Z,14.70
2023-04-10T10:31:07.299Z,14.70
2023-04-10T10:33:36.977Z,14.80
2023-04-10T10:36:04.741Z,15.30
2023-04-10T10:38:32.880Z,14.90
2023-04-10T10:41:23.721Z,15.00
2023-04-10T10:44:07.419Z,15.00
2023-04-10T10:46:49.074Z,15.10
2023-04-10T10:49:16.175Z,15.20
2023-04-10T10:51:48.607Z,15.20
2023-04-10T10:54:29.871Z,15.10
2023-04-10T10:56:57.727Z,15.10
2023-04-10T10:59:43.562Z,15.10
2023-04-10T11:02:18.601Z,15.30
2023-04-10T11:04:46.968Z,15.40
2023-04-10T11:07:17.427Z,15.40
2023-04-10T11:09:51.493Z,15.50
2023-04-10T11:12:25.866Z,15.50
2023-04-10T11:15:01.078Z,15.50
2023-04-10T11:17:50.737Z,15.50
2023-04-10T11:20:20.797Z,15.60
2023-04-10T11:23:11.234Z,15.70
2023-04-10T11:25:52.562Z,15.80
2023-04-10T11:28:39.348Z,15.80
2023-04-10T11:31:20.869Z,15.80
2023-04-10T11:34:08.337Z,15.90
2023-04-10T11:36:39.124Z,15.90
2023-04-10T11:39:14.461Z,15.90
2023-04-10T11:41:43.275Z,16.00
2023-04-10T11:44:12.901Z,17.50
2023-04-10T11:46:46.827Z,16.20
2023-04-10T11:49:27.698Z,16.80
2023-04-10T11:51:55.382Z,18.50
2023-04-10T11:54:27.220Z,16.40
2023-04-10T11:57:06.059Z,16.40
2023-04-10T11:59:33.974Z,16.40
2023-04-10T12:02:14.924Z,17.00
2023-04-10T12:04:44.064Z,16.50
2023-04-10T12:07:11.150Z,17.30
2023-04-10T12:09:37.959Z,18.10
2023-04-10T12:12:07.493Z,16.50
2023-04-10T12:14:35.442Z,16.40
2023-04-10T12:17:03.773Z,17.90
2023-04-10T12:19:31.447Z,18.40
2023-04-10T12:21:59.338Z,17.60
2023-04-10T12:24:48.329Z,16.70
2023-04-10T12:27:23.714Z,16.80
2023-04-10T12:29:52.588Z,16.90
2023-04-10T12:32:20.103Z,16.90
2023-04-10T12:34:57.209Z,17.00
2023-04-10T12:37:24.664Z,17.00
2023-04-10T12:39:51.920Z,16.90
2023-04-10T12:42:22.248Z,18.70
2023-04-10T12:44:56.107Z,17.00
2023-04-10T12:47:24.042Z,17.00
2023-04-10T12:50:07.700Z,18.70
2023-04-10T12:52:35.554Z,17.00
2023-04-10T12:55:32.924Z,17.00
2023-04-10T12:58:17.465Z,17.10
2023-04-10T13:00:44.347Z,17.30
2023-04-10T13:03:11.341Z,15.40
2023-04-10T13:05:38.209Z,17.80
2023-04-10T13:08:05.086Z,17.00
2023-04-10T13:10:31.860Z,17.20
2023-04-10T13:12:58.570Z,17.10
2023-04-10T13:15:25.631Z,17.00
2023-04-10T13:17:52.487Z,17.20
2023-04-10T13:20:19.665Z,17.40
2023-04-10T13:22:46.443Z,17.30
2023-04-10T13:25:13.167Z,17.40
2023-04-10T13:27:39.864Z,19.10
2023-04-10T13:30:07.365Z,17.50
2023-04-10T13:32:34.392Z,17.60
2023-04-10T13:35:01.168Z,17.60
2023-04-10T13:37:28.051Z,18.00
2023-04-10T13:39:54.960Z,17.70
2023-04-10T13:42:21.901Z,17.60
2023-04-10T13:44:48.705Z,17.70
2023-04-10T13:47:15.623Z,17.60
2023-04-10T13:49:43.812Z,17.60
2023-04-10T13:52:10.645Z,17.50
2023-04-10T13:54:37.346Z,18.80
2023-04-10T13:57:04.210Z,17.60
2023-04-10T13:59:31.112Z,17.80
2023-04-10T14:01:58.059Z,18.20
2023-04-10T14:04:24.898Z,17.50
2023-04-10T14:06:53.251Z,17.80
2023-04-10T14:09:19.978Z,17.60
2023-04-10T14:11:46.866Z,17.80
2023-04-10T14:14:13.704Z,17.70
2023-04-10T14:16:40.671Z,17.70
2023-04-10T14:19:07.554Z,17.70
2023-04-10T14:21:34.418Z,18.70
2023-04-10T14:24:01.255Z,19.30
2023-04-10T14:26:28.088Z,18.30
2023-04-10T14:28:55.184Z,18.80
2023-04-10T14:31:22.239Z,17.70
2023-04-10T14:33:49.497Z,18.70
2023-04-10T14:36:16.471Z,17.80
2023-04-10T14:38:43.298Z,18.30
2023-04-10T14:41:10.339Z,18.60
2023-04-10T14:43:38.256Z,18.00
2023-04-10T14:46:05.226Z,20.10
2023-04-10T14:48:35.053Z,17.90
2023-04-10T14:51:02.611Z,17.70
2023-04-10T14:53:29.625Z,17.90
2023-04-10T14:55:56.496Z,17.80
2023-04-10T14:58:23.532Z,17.90
2023-04-10T15:00:50.912Z,17.90
2023-04-10T15:03:18.048Z,17.90
2023-04-10T15:05:44.931Z,18.80
2023-04-10T15:08:11.819Z,17.50
2023-04-10T15:10:38.686Z,17.40
2023-04-10T15:13:06.076Z,17.90
2023-04-10T15:15:32.900Z,17.50
2023-04-10T15:17:59.656Z,17.50
2023-04-10T15:20:26.552Z,18.30
2023-04-10T15:22:54.546Z,17.50
2023-04-10T15:25:21.396Z,17.80
2023-04-10T15:27:48.315Z,17.90
2023-04-10T15:30:15.306Z,17.90
2023-04-10T15:32:42.313Z,17.40
2023-04-10T15:35:09.338Z,17.10
2023-04-10T15:37:36.848Z,17.20
2023-04-10T15:40:07.805Z,18.10
2023-04-10T15:42:35.081Z,17.30
2023-04-10T15:45:03.650Z,17.50
2023-04-10T15:47:31.075Z,17.20
2023-04-10T15:49:58.266Z,17.20
2023-04-10T15:52:25.253Z,17.30
2023-04-10T15:54:53.039Z,17.10
2023-04-10T15:57:19.897Z,17.00
2023-04-10T15:59:46.822Z,17.00
2023-04-10T16:02:13.829Z,17.10
2023-04-10T16:04:41.027Z,17.70
2023-04-10T16:07:08.034Z,17.50
2023-04-10T16:09:34.866Z,16.90
2023-04-10T16:12:02.099Z,16.90
2023-04-10T16:14:29.036Z,16.80
2023-04-10T16:16:55.956Z,16.70
2023-04-10T16:19:23.012Z,16.70
2023-04-10T16:21:51.075Z,16.60
2023-04-10T16:24:17.958Z,17.40
2023-04-10T16:26:44.837Z,18.10
2023-04-10T16:29:12.237Z,17.90
2023-04-10T16:31:39.210Z,18.10
2023-04-10T16:34:06.119Z,16.40
2023-04-10T16:36:33.134Z,16.40
2023-04-10T16:39:00.143Z,16.40
2023-04-10T16:41:27.028Z,16.30
2023-04-10T16:43:53.914Z,16.20
2023-04-10T16:46:21.013Z,16.10
2023-04-10T16:48:48.057Z,17.60
2023-04-10T16:51:16.173Z,16.00
2023-04-10T16:53:43.227Z,16.30
2023-04-10T16:56:10.629Z,16.10
2023-04-10T16:58:38.154Z,15.90
2023-04-10T17:01:25.803Z,16.10
2023-04-10T17:03:53.888Z,15.80
2023-04-10T17:06:20.764Z,15.60
2023-04-10T17:08:47.547Z,16.80
2023-04-10T17:11:14.377Z,17.00
2023-04-10T17:13:41.932Z,15.90
2023-04-10T17:16:09.974Z,15.50
2023-04-10T17:18:37.027Z,15.40
2023-04-10T17:21:04.234Z,15.40
2023-04-10T17:23:31.104Z,15.40
2023-04-10T17:25:57.966Z,15.40
2023-04-10T17:28:24.872Z,15.20
2023-04-10T17:30:51.651Z,15.20
2023-04-10T17:33:18.467Z,15.10
2023-04-10T17:35:45.516Z,15.10
2023-04-10T17:38:12.472Z,15.00
2023-04-10T17:40:41.055Z,15.00
2023-04-10T17:43:08.257Z,15.00
2023-04-10T17:45:39.053Z,15.00
2023-04-10T17:48:06.671Z,15.00
2023-04-10T17:50:33.923Z,14.90
2023-04-10T17:53:00.949Z,14.90
2023-04-10T17:55:28.131Z,14.80
2023-04-10T17:57:57.662Z,14.80
2023-04-10T18:00:24.696Z,14.80
2023-04-10T18:02:58.006Z,14.70
2023-04-10T18:05:25.490Z,15.60
2023-04-10T18:07:52.248Z,14.50
2023-04-10T18:10:19.322Z,14.50
2023-04-10T18:12:46.168Z,14.50
2023-04-10T18:15:15.964Z,14.50
2023-04-10T18:17:42.829Z,14.40
2023-04-10T18:20:10.238Z,14.50
2023-04-10T18:22:37.228Z,14.30
2023-04-10T18:25:05.294Z,14.30
2023-04-10T18:27:34.691Z,14.20
2023-04-10T18:30:01.833Z,15.70
2023-04-10T18:32:28.856Z,14.10
2023-04-10T18:34:55.829Z,14.10
2023-04-10T18:37:22.774Z,14.00
2023-04-10T18:39:49.539Z,13.90
2023-04-10T18:42:16.468Z,13.80
2023-04-10T18:44:43.384Z,13.80
2023-04-10T18:47:11.159Z,13.80
2023-04-10T18:49:38.146Z,13.80
2023-04-10T18:52:05.067Z,14.10
2023-04-10T18:54:33.266Z,13.70
2023-04-10T18:57:00.154Z,13.60
2023-04-10T18:59:28.046Z,13.60
2023-04-10T19:01:55.068Z,13.60
2023-04-10T19:04:22.593Z,13.60
2023-04-10T19:06:49.528Z,13.90
2023-04-10T19:09:16.615Z,13.50
2023-04-10T19:11:43.619Z,13.50
2023-04-10T19:14:10.670Z,13.50
2023-04-10T19:16:37.494Z,13.30
2023-04-10T19:19:04.397Z,13.30
2023-04-10T19:21:31.662Z,13.40
2023-04-10T19:23:58.679Z,13.50
2023-04-10T19:26:25.806Z,13.40
2023-04-10T19:28:53.974Z,13.40
2023-04-10T19:31:21.079Z,13.40
2023-04-10T19:33:48.237Z,13.40
2023-04-10T19:36:16.366Z,13.30
2023-04-10T19:38:48.450Z,13.30
2023-04-10T19:41:15.817Z,13.30
2023-04-10T19:43:42.918Z,13.30
2023-04-10T19:46:19.786Z,13.20
2023-04-10T19:48:47.783Z,13.20
2023-04-10T19:51:14.973Z,13.20
2023-04-10T19:53:42.027Z,13.20
2023-04-10T19:56:08.876Z,13.20
2023-04-10T19:58:41.011Z,13.10
2023-04-10T20:01:09.075Z,13.10
2023-04-10T20:03:36.860Z,13.00
2023-04-10T20:06:07.247Z,13.00
2023-04-10T20:08:34.818Z,13.00
2023-04-10T20:11:02.152Z,12.90
2023-04-10T20:13:28.921Z,13.00
2023-04-10T20:15:55.733Z,13.00
2023-04-10T20:18:22.593Z,12.90
2023-04-10T20:20:49.415Z,12.90
2023-04-10T20:23:16.389Z,12.90
2023-04-10T20:25:43.282Z,12.90
2023-04-10T20:28:09.985Z,12.90
2023-04-10T20:30:38.033Z,12.90
2023-04-10T20:33:05.423Z,12.90
2023-04-10T20:35:32.499Z,12.90
2023-04-10T20:37:59.352Z,12.80
2023-04-10T20:40:26.674Z,12.80
2023-04-10T20:42:54.213Z,12.80
2023-04-10T20:45:21.116Z,12.80
2023-04-10T20:47:47.963Z,12.80
2023-04-10T20:50:14.903Z,12.80
2023-04-10T20:52:41.604Z,12.80
2023-04-10T20:55:08.732Z,12.80
2023-04-10T20:57:35.540Z,12.70
2023-04-10T21:00:02.422Z,12.70
2023-04-10T21:02:29.328Z,12.70
2023-04-10T21:04:56.690Z,12.70
2023-04-10T21:07:23.464Z,12.60
2023-04-10T21:09:50.264Z,12.60
2023-04-10T21:12:16.970Z,12.60
2023-04-10T21:14:43.785Z,12.50
2023-04-10T21:17:10.708Z,12.50
2023-04-10T21:19:37.482Z,12.50
2023-04-10T21:22:04.424Z,12.50
2023-04-10T21:24:31.278Z,12.50
2023-04-10T21:26:58.042Z,12.40
2023-04-10T21:29:24.793Z,12.40
2023-04-10T21:31:51.641Z,12.40
2023-04-10T21:34:18.558Z,12.40
2023-04-10T21:36:45.350Z,12.50
2023-04-10T21:39:12.074Z,12.40
2023-04-10T21:41:39.782Z,12.40
2023-04-10T21:44:06.908Z,12.50
2023-04-10T21:46:33.940Z,12.50
2023-04-10T21:49:01.171Z,12.40
2023-04-10T21:51:28.323Z,12.70
2023-04-10T21:53:55.220Z,12.40
2023-04-10T21:56:22.127Z,12.40
2023-04-10T21:58:48.877Z,12.40
2023-04-10T22:01:15.800Z,12.40
2023-04-10T22:03:42.778Z,12.40
2023-04-10T22:06:09.897Z,12.40
2023-04-10T22:08:38.433Z,12.40
2023-04-10T22:11:06.037Z,12.40
2023-04-10T22:13:33.052Z,12.40
2023-04-10T22:16:02.414Z,12.40
2023-04-10T22:18:29.692Z,12.40
2023-04-10T22:20:56.596Z,12.40
2023-04-10T22:23:23.897Z,12.40
2023-04-10T22:25:50.748Z,12.40
2023-04-10T22:28:17.594Z,12.40
2023-04-10T22:30:44.703Z,12.40
2023-04-10T22:33:12.096Z,12.40
2023-04-10T22:35:38.942Z,12.40
2023-04-10T22:38:05.825Z,12.40
2023-04-10T22:40:32.611Z,12.40
2023-04-10T22:42:59.421Z,12.40
2023-04-10T22:45:26.175Z,12.40
2023-04-10T22:47:52.878Z,12.40
2023-04-10T22:50:20.979Z,12.40
2023-04-10T22:52:47.851Z,12.40
2023-04-10T22:55:14.656Z,12.40
2023-04-10T22:57:41.683Z,12.40
2023-04-10T23:00:09.083Z,12.40
2023-04-10T23:02:36.134Z,12.40
2023-04-10T23:05:03.279Z,12.40
2023-04-10T23:07:30.256Z,12.40
2023-04-10T23:09:56.988Z,12.40
2023-04-10T23:12:23.751Z,12.40
2023-04-10T23:14:50.590Z,12.40
2023-04-10T23:17:19.035Z,12.40
2023-04-10T23:19:45.834Z,12.40
2023-04-10T23:22:12.676Z,12.40
2023-04-10T23:24:39.517Z,12.30
2023-04-10T23:27:07.276Z,12.30
2023-04-10T23:29:34.709Z,12.30
2023-04-10T23:32:01.526Z,12.30
2023-04-10T23:34:28.437Z,12.30
2023-04-10T23:36:55.775Z,12.30
2023-04-10T23:39:22.697Z,12.30
2023-04-10T23:41:49.538Z,12.30
2023-04-10T23:44:16.339Z,12.30
2023-04-10T23:46:43.122Z,12.30
2023-04-10T23:49:10.032Z,12.30
2023-04-10T23:51:36.806Z,12.30
2023-04-10T23:54:03.656Z,12.30
2023-04-10T23:56:31.004Z,12.30
2023-04-10T23:58:57.996Z,12.30
